Time;durP1;ratioP1;P1;durP2;ratioP2;P2;SDS_P1;SDS_P2;PMS_P1;PMS_P2;Temp;Humidity;BMP_temperature;BMP_pressure;BME280_temperature;BME280_humidity;BME280_pressure;Samples;Min_cycle;Max_cycle;Signal;HPM_P1;HPM_P2
2024/03/10 00:01:01;;;;;;;;;;;;;;;21.65;35.51;98836.91;4099320;28;19930;-58
2024/03/10 00:03:04;;;;;;;;;;;;;;;21.64;35.27;98848.63;4099546;28;19930;-58
2024/03/10 00:05:06;;;;;;;;;;;;;;;21.61;35.25;98843.63;4099593;28;19922;-58
2024/03/10 00:07:07;;;;;;;;;;;;;;;21.62;35.60;98837.28;4099363;29;19929;-58
2024/03/10 00:09:09;;;;;;;;;;;;;;;21.62;35.64;98843.44;4097977;28;19933;-58
2024/03/10 00:11:11;;;;;;;;;;;;;;;21.62;35.41;98840.78;4099332;28;19978;-58
2024/03/10 00:13:13;;;;;;;;;;;;;;;21.62;35.64;98842.63;4098845;28;20634;-58
2024/03/10 00:15:17;;;;;;;;;;;;;;;21.60;35.47;98834.75;4098313;29;20360;-58
2024/03/10 00:17:20;;;;;;;;;;;;;;;21.65;35.37;98844.94;4099285;28;19989;-58
2024/03/10 00:19:22;;;;;;;;;;;;;;;21.66;35.37;98849.28;4099000;28;19922;-58
2024/03/10 00:21:23;;;;;;;;;;;;;;;21.65;35.48;98836.91;4099311;28;20325;-58
2024/03/10 00:23:25;;;;;;;;;;;;;;;21.66;35.51;98833.25;4099151;28;19923;-57
2024/03/10 00:25:27;;;;;;;;;;;;;;;21.64;35.26;98835.25;4098996;29;19969;-58
2024/03/10 00:27:28;;;;;;;;;;;;;;;21.63;35.39;98836.25;4097746;29;19977;-58
2024/03/10 00:29:30;;;;;;;;;;;;;;;21.62;35.40;98834.59;4099431;28;20274;-57
2024/03/10 00:31:32;;;;;;;;;;;;;;;21.60;35.34;98833.94;4099134;29;20009;-58
2024/03/10 00:33:34;;;;;;;;;;;;;;;21.58;35.49;98831.44;4100208;28;19945;-58
2024/03/10 00:35:35;;;;;;;;;;;;;;;21.59;35.34;98837.59;4102476;28;19944;-57
2024/03/10 00:37:38;;;;;;;;;;;;;;;21.59;35.31;98841.09;4102403;28;20005;-58
2024/03/10 00:39:41;;;;;;;;;;;;;;;21.62;35.66;98842.63;4102438;28;19922;-58
2024/03/10 00:41:42;;;;;;;;;;;;;;;21.61;35.40;98843.63;4102005;28;19922;-59
2024/03/10 00:43:44;;;;;;;;;;;;;;;21.61;35.52;98846.31;4102495;28;19929;-58
2024/03/10 00:45:45;;;;;;;;;;;;;;;21.60;35.53;98839.28;4102240;28;19923;-58
2024/03/10 00:47:54;;;;;;;;;;;;;;;21.61;35.84;98840.94;4102314;28;19954;-57
2024/03/10 00:49:56;;;;;;;;;;;;;;;21.60;35.46;98832.06;4102257;29;20819;-58
2024/03/10 00:51:58;;;;;;;;;;;;;;;21.62;35.28;98838.09;4102314;28;20125;-58
2024/03/10 00:53:59;;;;;;;;;;;;;;;21.61;35.42;98838.28;4102101;28;20301;-57
2024/03/10 00:56:02;;;;;;;;;;;;;;;21.60;35.48;98836.59;4101805;28;20286;-58
2024/03/10 00:58:04;;;;;;;;;;;;;;;21.56;35.56;98836.09;4101968;28;19933;-58
2024/03/10 01:00:10;;;;;;;;;;;;;;;21.57;35.50;98834.25;4100925;29;20357;-58
2024/03/10 01:02:12;;;;;;;;;;;;;;;21.59;35.51;98838.44;4102130;28;20009;-58
2024/03/10 01:04:14;;;;;;;;;;;;;;;21.60;35.30;98839.28;4102200;29;19922;-58
2024/03/10 01:06:16;;;;;;;;;;;;;;;21.60;35.43;98834.75;4102006;29;19969;-57
2024/03/10 01:08:18;;;;;;;;;;;;;;;21.60;35.18;98829.41;4102071;29;19985;-58
2024/03/10 01:10:20;;;;;;;;;;;;;;;21.58;35.72;98835.94;4101702;28;19961;-57
2024/03/10 01:12:21;;;;;;;;;;;;;;;21.61;35.27;98839.09;4101847;28;20009;-57
2024/03/10 01:14:23;;;;;;;;;;;;;;;21.61;35.22;98833.75;4101965;28;19942;-58
2024/03/10 01:16:25;;;;;;;;;;;;;;;21.59;35.53;98838.44;4101990;28;19926;-58
2024/03/10 01:18:26;;;;;;;;;;;;;;;21.59;35.32;98829.59;4101721;28;19933;-58
2024/03/10 01:20:28;;;;;;;;;;;;;;;21.59;35.47;98826.91;4101839;29;19926;-58
2024/03/10 01:22:31;;;;;;;;;;;;;;;21.59;35.11;98825.06;4102003;28;19922;-58
2024/03/10 01:24:33;;;;;;;;;;;;;;;21.55;35.32;98813.84;4101383;28;20302;-58
2024/03/10 01:26:34;;;;;;;;;;;;;;;21.57;35.39;98810.19;4101745;29;19922;-59
2024/03/10 01:28:36;;;;;;;;;;;;;;;21.57;35.58;98807.50;4101987;28;20286;-58
2024/03/10 01:30:41;;;;;;;;;;;;;;;21.57;35.29;98804.84;4101644;28;20389;-58
2024/03/10 01:32:43;;;;;;;;;;;;;;;21.57;35.33;98803.00;4101763;28;20004;-58
2024/03/10 01:34:45;;;;;;;;;;;;;;;21.58;35.28;98791.31;4101598;28;19946;-57
2024/03/10 01:36:46;;;;;;;;;;;;;;;21.59;35.30;98789.47;4101557;28;20397;-58
2024/03/10 01:38:48;;;;;;;;;;;;;;;21.56;35.49;98790.63;4101547;28;19984;-58
2024/03/10 01:40:49;;;;;;;;;;;;;;;21.57;35.57;98784.28;4101213;28;19962;-57
2024/03/10 01:42:54;;;;;;;;;;;;;;;21.57;35.68;98784.28;4101463;28;20274;-58
2024/03/10 01:44:59;;;;;;;;;;;;;;;21.57;35.50;98794.13;4100164;28;19929;-58
2024/03/10 01:47:01;;;;;;;;;;;;;;;21.57;35.46;98788.78;4101416;29;19923;-57
2024/03/10 01:49:04;;;;;;;;;;;;;;;21.56;35.30;98787.94;4101621;28;19928;-58
2024/03/10 01:51:06;;;;;;;;;;;;;;;21.53;35.30;98788.28;4101466;28;19922;-58
2024/03/10 01:53:09;;;;;;;;;;;;;;;21.51;35.19;98775.06;4100173;29;20025;-58
2024/03/10 01:55:11;;;;;;;;;;;;;;;21.47;35.37;98786.28;4100868;28;19978;-58
2024/03/10 01:57:14;;;;;;;;;;;;;;;21.47;35.46;98775.59;4101242;28;19922;-58
2024/03/10 01:59:16;;;;;;;;;;;;;;;21.51;35.33;98775.06;4101271;28;19922;-58
2024/03/10 02:01:18;;;;;;;;;;;;;;;21.52;35.25;98771.41;4101340;28;19923;-58
2024/03/10 02:03:20;;;;;;;;;;;;;;;21.52;35.35;98767.91;4101468;28;19927;-59
2024/03/10 02:05:23;;;;;;;;;;;;;;;21.51;35.10;98767.06;4101347;28;19923;-58
2024/03/10 02:07:25;;;;;;;;;;;;;;;21.51;35.32;98772.41;4101073;28;20370;-58
2024/03/10 02:09:27;;;;;;;;;;;;;;;21.52;35.48;98767.91;4100596;28;19923;-58
2024/03/10 02:11:28;;;;;;;;;;;;;;;21.52;35.32;98770.56;4101029;29;20022;-58
2024/03/10 02:13:30;;;;;;;;;;;;;;;21.51;35.37;98777.75;4100986;28;19922;-58
2024/03/10 02:15:32;;;;;;;;;;;;;;;21.52;35.34;98776.75;4101069;29;19985;-58
2024/03/10 02:17:36;;;;;;;;;;;;;;;21.49;35.29;98784.28;4100911;28;19922;-58
2024/03/10 02:19:39;;;;;;;;;;;;;;;21.51;35.28;98779.59;4100852;28;19933;-58
2024/03/10 02:21:41;;;;;;;;;;;;;;;21.49;35.36;98785.09;4100988;28;19922;-58
2024/03/10 02:23:46;;;;;;;;;;;;;;;21.49;35.63;98789.63;4100631;28;19922;-58
2024/03/10 02:25:50;;;;;;;;;;;;;;;21.48;35.46;98788.81;4100965;28;19932;-58
2024/03/10 02:27:53;;;;;;;;;;;;;;;21.49;35.54;98784.28;4100803;28;19922;-57
2024/03/10 02:30:18;;;;;;;;;;;;;;;21.50;35.44;98794.81;4100809;28;19929;-58
2024/03/10 02:48:59;;;;;;;;;;;;;;;21.46;35.66;98766.75;4035839;29;19991;-58
2024/03/10 02:51:01;;;;;;;;;;;;;;;21.47;35.52;98760.41;4035962;29;19931;-59
2024/03/10 02:53:05;;;;;;;;;;;;;;;21.49;35.45;98760.22;4035647;29;20011;-57
2024/03/10 02:55:08;;;;;;;;;;;;;;;21.50;35.78;98752.00;4035780;29;20004;-58
2024/03/10 02:57:10;;;;;;;;;;;;;;;21.50;35.79;98749.34;4035393;29;19938;-57
2024/03/10 02:59:12;;;;;;;;;;;;;;;21.52;35.83;98752.69;4035717;29;19931;-58
2024/03/10 03:01:16;;;;;;;;;;;;;;;21.51;35.48;98751.00;4035811;29;19924;-57
2024/03/10 03:03:18;;;;;;;;;;;;;;;21.50;35.54;98746.66;4035754;29;19934;-57
2024/03/10 03:05:19;;;;;;;;;;;;;;;21.53;35.77;98740.13;4035981;29;20331;-58
2024/03/10 03:07:22;;;;;;;;;;;;;;;21.49;35.79;98736.97;4035318;29;19930;-58
2024/03/10 03:09:23;;;;;;;;;;;;;;;21.50;35.69;98749.34;4035532;29;20412;-58
2024/03/10 03:11:25;;;;;;;;;;;;;;;21.48;35.74;98748.69;4039286;29;19927;-58
2024/03/10 03:13:26;;;;;;;;;;;;;;;21.42;35.64;98741.34;4051106;29;19931;-58
2024/03/10 03:15:29;;;;;;;;;;;;;;;21.45;35.85;98742.84;4050923;29;20367;-59
2024/03/10 03:17:31;;;;;;;;;;;;;;;21.44;35.71;98744.69;4051063;29;19928;-58
2024/03/10 03:19:33;;;;;;;;;;;;;;;21.45;35.66;98756.22;4050921;29;20477;-59
2024/03/10 03:21:34;;;;;;;;;;;;;;;21.46;35.88;98758.72;4075818;29;19930;-58
2024/03/10 03:23:38;;;;;;;;;;;;;;;21.48;35.80;98753.19;4084185;29;19948;-59
2024/03/10 03:25:40;;;;;;;;;;;;;;;21.51;35.64;98752.84;4083943;29;19927;-60
2024/03/10 03:27:45;;;;;;;;;;;;;;;21.51;35.44;98764.38;4084095;29;19927;-59
2024/03/10 03:29:47;;;;;;;;;;;;;;;21.51;35.52;98774.25;4083961;29;19923;-60
2024/03/10 03:31:49;;;;;;;;;;;;;;;21.50;35.77;98768.06;4083822;29;19930;-60
2024/03/10 03:33:52;;;;;;;;;;;;;;;21.46;35.63;98766.75;4084119;29;19934;-60
2024/03/10 03:35:54;;;;;;;;;;;;;;;21.47;35.49;98768.41;4083545;29;20342;-60
2024/03/10 03:37:56;;;;;;;;;;;;;;;21.46;35.83;98764.06;4083806;29;19944;-59
2024/03/10 03:39:58;;;;;;;;;;;;;;;21.45;35.93;98774.94;4083939;29;19923;-59
2024/03/10 03:41:59;;;;;;;;;;;;;;;21.46;35.63;98773.91;4083742;29;19930;-58
2024/03/10 03:44:04;;;;;;;;;;;;;;;21.48;35.52;98775.44;4083812;29;19959;-59
2024/03/10 03:46:05;;;;;;;;;;;;;;;21.49;35.58;98770.91;4083637;29;20366;-60
2024/03/10 03:48:07;;;;;;;;;;;;;;;21.48;35.54;98774.59;4083583;29;19926;-58
2024/03/10 03:50:09;;;;;;;;;;;;;;;21.51;35.64;98772.41;4083445;29;19923;-58
2024/03/10 03:52:10;;;;;;;;;;;;;;;21.51;35.73;98772.41;4083941;29;19922;-58
2024/03/10 03:54:12;;;;;;;;;;;;;;;21.49;35.76;98765.56;4083728;29;19923;-58
2024/03/10 03:56:13;;;;;;;;;;;;;;;21.48;35.36;98763.88;4083680;29;20331;-59
2024/03/10 03:58:16;;;;;;;;;;;;;;;21.49;35.64;98765.56;4083710;29;20040;-59
2024/03/10 04:00:17;;;;;;;;;;;;;;;21.48;35.68;98767.41;4083611;29;19923;-59
2024/03/10 04:02:25;;;;;;;;;;;;;;;21.47;35.53;98760.41;4082296;29;19927;-59
2024/03/10 04:04:28;;;;;;;;;;;;;;;21.45;35.73;98737.50;4083421;29;19927;-59
2024/03/10 04:06:29;;;;;;;;;;;;;;;21.46;35.73;98737.31;4083507;29;19930;-60
2024/03/10 04:08:31;;;;;;;;;;;;;;;21.41;35.49;98723.66;4082977;29;19931;-59
2024/03/10 04:10:35;;;;;;;;;;;;;;;21.43;35.72;98718.94;4083283;29;20358;-59
2024/03/10 04:12:37;;;;;;;;;;;;;;;21.43;35.64;98721.63;4089034;29;19938;-59
2024/03/10 04:14:39;;;;;;;;;;;;;;;21.45;35.42;98734.84;4099347;29;19977;-57
2024/03/10 04:16:43;;;;;;;;;;;;;;;21.43;35.49;98747.53;4099433;28;19923;-58
2024/03/10 04:18:45;;;;;;;;;;;;;;;21.44;35.29;98762.59;4099046;28;19927;-58
2024/03/10 04:20:47;;;;;;;;;;;;;;;21.47;35.61;98767.56;4099018;28;19922;-58
2024/03/10 04:22:49;;;;;;;;;;;;;;;21.47;35.43;98783.63;4099303;28;19930;-58
2024/03/10 04:24:50;;;;;;;;;;;;;;;21.45;35.41;98789.16;4099261;28;19923;-58
2024/03/10 04:26:52;;;;;;;;;;;;;;;21.46;35.67;98787.28;4099130;28;19926;-58
2024/03/10 04:28:56;;;;;;;;;;;;;;;21.43;35.70;98793.00;4099416;28;19922;-58
2024/03/10 04:30:58;;;;;;;;;;;;;;;21.42;35.55;98794.00;4099042;28;19923;-58
2024/03/10 04:33:02;;;;;;;;;;;;;;;21.42;35.42;98805.53;4098885;28;19934;-58
2024/03/10 04:35:05;;;;;;;;;;;;;;;21.41;35.29;98798.53;4098011;29;19982;-58
2024/03/10 04:37:08;;;;;;;;;;;;;;;21.41;35.48;98795.00;4099094;28;19922;-58
2024/03/10 04:39:10;;;;;;;;;;;;;;;21.40;35.50;98791.50;4099244;28;19927;-58
2024/03/10 04:41:12;;;;;;;;;;;;;;;21.45;35.67;98791.81;4098957;28;20025;-59
2024/03/10 04:43:14;;;;;;;;;;;;;;;21.45;35.34;98791.81;4098952;29;19922;-58
2024/03/10 04:45:16;;;;;;;;;;;;;;;21.34;35.23;98765.47;4098989;29;19929;-58
2024/03/10 04:47:18;;;;;;;;;;;;;;;21.47;35.61;98781.78;4097812;29;19929;-58
2024/03/10 04:49:20;;;;;;;;;;;;;;;21.48;35.42;98783.47;4098832;28;20167;-58
2024/03/10 04:51:22;;;;;;;;;;;;;;;21.44;35.44;98786.66;4097729;29;19926;-58
2024/03/10 04:53:23;;;;;;;;;;;;;;;21.45;35.59;98791.00;4099050;28;19922;-58
2024/03/10 04:55:26;;;;;;;;;;;;;;;21.41;35.58;98800.34;4098968;28;19923;-59
2024/03/10 04:57:28;;;;;;;;;;;;;;;21.41;35.41;98800.34;4099012;29;19953;-59
2024/03/10 04:59:29;;;;;;;;;;;;;;;21.40;35.45;98802.22;4098864;29;20017;-60
2024/03/10 05:01:31;;;;;;;;;;;;;;;21.41;35.24;98808.38;4098813;28;20009;-59
2024/03/10 05:03:36;;;;;;;;;;;;;;;21.41;35.54;98803.88;4097063;29;20389;-60
2024/03/10 05:05:37;;;;;;;;;;;;;;;21.47;35.40;98799.66;4098928;28;19922;-58
2024/03/10 05:07:39;;;;;;;;;;;;;;;21.43;35.50;98782.31;4098829;29;20277;-58
2024/03/10 05:09:41;;;;;;;;;;;;;;;21.41;35.37;98779.81;4098637;28;19922;-58
2024/03/10 05:11:42;;;;;;;;;;;;;;;21.41;35.33;98774.47;4098815;28;19926;-58
2024/03/10 05:13:44;;;;;;;;;;;;;;;21.43;35.53;98783.13;4098847;29;20350;-58
2024/03/10 05:15:47;;;;;;;;;;;;;;;21.42;35.25;98786.81;4098756;28;20385;-58
2024/03/10 05:17:48;;;;;;;;;;;;;;;21.40;35.08;98791.50;4098495;28;19932;-57
2024/03/10 05:19:50;;;;;;;;;;;;;;;21.41;35.49;98785.16;4099944;28;19922;-58
2024/03/10 05:21:52;;;;;;;;;;;;;;;21.43;35.34;98777.78;4101904;29;19977;-58
2024/03/10 05:23:53;;;;;;;;;;;;;;;21.42;35.25;98772.59;4101973;28;19965;-58
2024/03/10 05:25:55;;;;;;;;;;;;;;;21.39;35.36;98782.63;4101799;28;19922;-58
2024/03/10 05:27:57;;;;;;;;;;;;;;;21.36;35.54;98785.66;4101781;28;19926;-58
2024/03/10 05:29:58;;;;;;;;;;;;;;;21.34;35.55;98793.03;4101642;29;19945;-59
2024/03/10 05:32:00;;;;;;;;;;;;;;;21.36;35.51;98793.69;4101168;28;19973;-60
2024/03/10 05:34:03;;;;;;;;;;;;;;;21.38;35.29;98798.84;4101563;28;20492;-59
2024/03/10 05:36:05;;;;;;;;;;;;;;;21.39;35.39;98804.03;4101697;28;19927;-59
2024/03/10 05:38:06;;;;;;;;;;;;;;;21.40;35.32;98810.22;4101551;28;19927;-59
2024/03/10 05:40:08;;;;;;;;;;;;;;;21.39;35.50;98812.06;4101332;28;19922;-59
2024/03/10 05:42:10;;;;;;;;;;;;;;;21.39;35.34;98822.75;4101354;28;20342;-59
2024/03/10 05:44:14;;;;;;;;;;;;;;;21.40;35.54;98823.59;4101260;29;20425;-59
2024/03/10 05:46:15;;;;;;;;;;;;;;;21.41;35.31;98832.44;4100885;28;19969;-58
2024/03/10 05:48:18;;;;;;;;;;;;;;;21.38;35.29;98830.94;4101570;28;19926;-59
2024/03/10 05:50:23;;;;;;;;;;;;;;;21.34;35.53;98830.47;4101368;28;19927;-59
2024/03/10 05:52:26;;;;;;;;;;;;;;;21.32;35.28;98821.75;4101305;28;19929;-59
2024/03/10 05:54:27;;;;;;;;;;;;;;;21.33;35.30;98825.28;4101322;28;19981;-59
2024/03/10 05:56:29;;;;;;;;;;;;;;;21.36;35.41;98827.59;4101231;28;19961;-59
2024/03/10 05:58:38;;;;;;;;;;;;;;;21.36;35.43;98825.78;4101301;29;20364;-59
2024/03/10 06:00:40;;;;;;;;;;;;;;;21.38;35.36;98834.44;4100982;28;19922;-59
2024/03/10 06:02:44;;;;;;;;;;;;;;;21.39;35.42;98830.78;4101162;28;20358;-59
2024/03/10 06:04:47;;;;;;;;;;;;;;;21.41;35.17;98844.00;4100006;29;19926;-59
2024/03/10 06:06:49;;;;;;;;;;;;;;;21.39;35.40;98844.13;4100998;28;20027;-59
2024/03/10 06:08:50;;;;;;;;;;;;;;;21.41;35.19;98849.34;4100807;28;19929;-58
2024/03/10 06:10:53;;;;;;;;;;;;;;;21.42;35.31;98852.84;4101040;29;19922;-59
2024/03/10 06:12:55;;;;;;;;;;;;;;;21.42;35.13;98853.66;4100970;29;19923;-59
2024/03/10 06:14:57;;;;;;;;;;;;;;;21.39;35.14;98852.16;4100817;29;20390;-59
2024/03/10 06:17:00;;;;;;;;;;;;;;;21.35;35.26;98858.00;4100940;28;19926;-59
2024/03/10 06:25:43;;;;;;;;;;;;;;;21.35;35.36;98847.31;4100853;28;19923;-58
2024/03/10 06:27:45;;;;;;;;;;;;;;;21.37;35.37;98842.66;4100922;28;20305;-59
2024/03/10 06:29:47;;;;;;;;;;;;;;;21.35;35.40;98840.16;4100396;28;19945;-59
2024/03/10 06:31:49;;;;;;;;;;;;;;;21.35;35.38;98842.81;4100007;28;19965;-57
2024/03/10 06:33:51;;;;;;;;;;;;;;;21.38;35.27;98852.34;4100753;28;19922;-57
2024/03/10 06:35:52;;;;;;;;;;;;;;;21.37;35.20;98864.03;4100827;29;20005;-58
2024/03/10 06:37:54;;;;;;;;;;;;;;;21.36;35.25;98870.38;4099412;29;19977;-57
2024/03/10 06:39:56;;;;;;;;;;;;;;;21.38;35.02;98873.72;4100758;28;20308;-58
2024/03/10 06:41:57;;;;;;;;;;;;;;;21.35;35.48;98874.06;4100318;28;20397;-59
2024/03/10 06:43:59;;;;;;;;;;;;;;;21.36;35.22;98878.41;4100125;28;20021;-58
2024/03/10 06:46:00;;;;;;;;;;;;;;;21.33;35.32;98871.56;4100714;28;19923;-58
2024/03/10 06:48:02;;;;;;;;;;;;;;;21.32;35.11;98869.88;4100429;28;20392;-60
2024/03/10 06:50:04;;;;;;;;;;;;;;;21.35;35.47;98871.38;4100517;28;20366;-57
2024/03/10 06:52:06;;;;;;;;;;;;;;;21.36;35.35;98873.06;4100563;28;20275;-58
2024/03/10 06:54:08;;;;;;;;;;;;;;;21.36;35.32;98873.91;4100457;28;20017;-58
2024/03/10 06:56:09;;;;;;;;;;;;;;;21.37;35.31;98872.91;4100416;28;19930;-58
2024/03/10 06:58:12;;;;;;;;;;;;;;;21.37;35.37;98878.25;4100044;28;20386;-58
2024/03/10 07:00:13;;;;;;;;;;;;;;;21.37;35.15;98883.59;4100392;28;19950;-58
2024/03/10 07:02:15;;;;;;;;;;;;;;;21.37;35.18;98888.97;4100166;29;19970;-58
2024/03/10 07:04:17;;;;;;;;;;;;;;;21.37;35.14;98891.63;4100105;29;19926;-58
2024/03/10 07:06:21;;;;;;;;;;;;;;;21.38;35.19;98895.94;4100075;28;19945;-58
2024/03/10 07:08:23;;;;;;;;;;;;;;;21.36;35.08;98905.16;4100281;28;19926;-58
2024/03/10 07:10:24;;;;;;;;;;;;;;;21.34;35.29;98912.53;4100069;28;19977;-59
2024/03/10 07:12:29;;;;;;;;;;;;;;;21.33;35.35;98908.19;4098743;29;19950;-59
2024/03/10 07:14:30;;;;;;;;;;;;;;;21.33;35.54;98909.00;4099999;28;20283;-59
2024/03/10 07:16:32;;;;;;;;;;;;;;;21.33;35.34;98909.00;4098677;29;20440;-58
2024/03/10 07:18:35;;;;;;;;;;;;;;;21.34;35.33;98915.19;4100103;28;19945;-58
2024/03/10 07:20:36;;;;;;;;;;;;;;;21.34;35.33;98915.19;4099853;28;19998;-58
2024/03/10 07:22:38;;;;;;;;;;;;;;;21.35;35.59;98914.16;4100115;28;19953;-58
2024/03/10 07:24:39;;;;;;;;;;;;;;;21.37;35.51;98920.19;4100215;28;20304;-58
2024/03/10 07:26:41;;;;;;;;;;;;;;;21.36;35.50;98916.69;4099876;28;19929;-58
2024/03/10 07:28:43;;;;;;;;;;;;;;;21.38;35.54;98916.53;4099630;29;19933;-58
2024/03/10 07:30:45;;;;;;;;;;;;;;;21.39;35.75;98920.88;4100120;28;19926;-58
2024/03/10 07:32:46;;;;;;;;;;;;;;;21.37;35.31;98913.03;4098491;29;19937;-58
2024/03/10 07:34:48;;;;;;;;;;;;;;;21.37;35.39;98920.19;4099734;29;19937;-59
2024/03/10 07:36:50;;;;;;;;;;;;;;;21.35;35.20;98927.53;4099672;29;19926;-59
2024/03/10 07:38:51;;;;;;;;;;;;;;;21.34;35.60;98936.59;4099829;28;19922;-58
2024/03/10 07:40:54;;;;;;;;;;;;;;;21.30;35.43;98933.41;4099838;28;20389;-59
2024/03/10 07:42:59;;;;;;;;;;;;;;;21.28;35.56;98938.09;4099222;28;19938;-58
2024/03/10 07:45:01;;;;;;;;;;;;;;;21.35;35.63;98943.59;4099550;28;20341;-59
2024/03/10 07:47:04;;;;;;;;;;;;;;;21.36;35.41;98939.91;4099841;28;19934;-59
2024/03/10 07:49:06;;;;;;;;;;;;;;;21.36;35.47;98932.75;4099621;28;19977;-59
2024/03/10 07:51:08;;;;;;;;;;;;;;;21.36;35.39;98938.09;4099523;28;20378;-59
2024/03/10 07:53:10;;;;;;;;;;;;;;;21.37;35.57;98937.09;4099475;28;20301;-59
2024/03/10 07:55:12;;;;;;;;;;;;;;;21.35;35.33;98939.09;4099577;28;19922;-59
2024/03/10 07:57:13;;;;;;;;;;;;;;;21.39;35.43;98940.41;4099184;29;19965;-59
2024/03/10 07:59:16;;;;;;;;;;;;;;;21.39;35.65;98948.44;4098251;29;19926;-59
2024/03/10 08:01:18;;;;;;;;;;;;;;;21.38;35.44;98938.75;4098085;29;19944;-59
2024/03/10 08:03:20;;;;;;;;;;;;;;;21.37;35.29;98944.25;4099374;28;19985;-59
2024/03/10 08:05:22;;;;;;;;;;;;;;;21.35;35.50;98940.91;4099373;29;19922;-59
2024/03/10 08:07:24;;;;;;;;;;;;;;;21.34;35.40;98944.63;4099328;29;20057;-59
2024/03/10 08:09:26;;;;;;;;;;;;;;;21.33;35.49;98951.78;4099347;28;20305;-59
2024/03/10 08:11:29;;;;;;;;;;;;;;;21.34;35.45;98948.09;4099046;29;19923;-59
2024/03/10 08:13:31;;;;;;;;;;;;;;;21.32;35.61;98941.25;4099425;28;19923;-58
2024/03/10 08:15:32;;;;;;;;;;;;;;;21.33;35.64;98942.94;4099233;28;19922;-59
2024/03/10 08:17:34;;;;;;;;;;;;;;;21.36;35.79;98939.91;4099367;28;19926;-59
2024/03/10 08:19:36;;;;;;;;;;;;;;;21.37;35.70;98942.44;4099427;28;19965;-59
2024/03/10 08:21:38;;;;;;;;;;;;;;;21.38;35.39;98944.09;4099233;28;20307;-58
2024/03/10 08:23:40;;;;;;;;;;;;;;;21.39;35.47;98947.63;4099392;28;19946;-58
2024/03/10 08:25:45;;;;;;;;;;;;;;;21.38;35.43;98949.44;4099088;28;19926;-58
2024/03/10 08:27:52;;;;;;;;;;;;;;;21.37;35.35;98949.59;4099388;28;19989;-59
2024/03/10 08:29:53;;;;;;;;;;;;;;;21.37;35.34;98953.13;4098947;28;19945;-58
2024/03/10 08:31:56;;;;;;;;;;;;;;;21.36;35.60;98961.31;4099189;28;19938;-58
2024/03/10 08:33:58;;;;;;;;;;;;;;;21.37;35.46;98965.66;4099099;28;19922;-58
2024/03/10 08:36:04;;;;;;;;;;;;;;;21.35;35.63;98978.34;4098168;29;20282;-58
2024/03/10 08:38:06;;;;;;;;;;;;;;;21.36;35.79;98980.88;4099305;28;19922;-57
2024/03/10 08:40:11;;;;;;;;;;;;;;;21.36;35.32;98977.34;4098794;29;19954;-59
2024/03/10 08:42:15;;;;;;;;;;;;;;;21.37;35.69;98971.00;4099191;29;19922;-57
2024/03/10 08:44:17;;;;;;;;;;;;;;;21.36;35.89;98972.00;4098006;29;20004;-58
2024/03/10 08:46:19;;;;;;;;;;;;;;;21.36;35.47;98972.84;4099049;28;19942;-59
2024/03/10 08:48:21;;;;;;;;;;;;;;;21.38;35.72;98978.84;4099180;28;19934;-58
2024/03/10 08:50:22;;;;;;;;;;;;;;;21.40;35.57;98973.34;4099104;28;19922;-59
2024/03/10 08:52:24;;;;;;;;;;;;;;;21.41;35.67;98976.84;4099070;28;20243;-59
2024/03/10 08:54:26;;;;;;;;;;;;;;;21.38;35.49;98976.19;4099381;28;19922;-58
2024/03/10 08:56:27;;;;;;;;;;;;;;;21.38;35.65;98978.03;4102356;28;19954;-58
2024/03/10 08:58:29;;;;;;;;;;;;;;;21.35;35.66;98973.84;4102257;28;19926;-59
2024/03/10 09:00:31;;;;;;;;;;;;;;;21.34;35.66;98982.06;4102295;28;19922;-58
2024/03/10 09:02:33;;;;;;;;;;;;;;;21.35;35.70;98981.88;4102284;28;20004;-59
2024/03/10 09:04:34;;;;;;;;;;;;;;;21.36;35.57;98986.22;4102287;28;19926;-59
2024/03/10 09:06:37;;;;;;;;;;;;;;;21.37;35.82;98987.91;4100746;29;19927;-59
2024/03/10 09:08:39;;;;;;;;;;;;;;;21.41;35.61;98987.56;4101556;28;19922;-59
2024/03/10 09:10:40;;;;;;;;;;;;;;;21.39;35.72;98979.69;4101811;28;19923;-59
2024/03/10 09:12:58;;;;;;;;;;;;;;;21.38;35.84;98984.19;4102035;28;20025;-59
2024/03/10 09:15:00;;;;;;;;;;;;;;;21.38;35.62;98983.38;4101847;28;19922;-59
2024/03/10 09:17:03;;;;;;;;;;;;;;;21.41;35.35;98980.38;4101872;29;20425;-58
2024/03/10 09:19:05;;;;;;;;;;;;;;;21.40;35.51;98989.41;4101688;28;19923;-58
2024/03/10 09:21:07;;;;;;;;;;;;;;;21.41;35.58;98987.56;4101689;29;20420;-59
2024/03/10 09:23:09;;;;;;;;;;;;;;;21.42;35.50;98998.06;4101557;28;19922;-59
2024/03/10 09:25:32;;;;;;;;;;;;;;;21.38;35.71;99002.09;4101781;29;19937;-58
2024/03/10 09:27:34;;;;;;;;;;;;;;;21.37;35.74;99001.28;4101748;28;19923;-58
2024/03/10 09:29:36;;;;;;;;;;;;;;;21.35;35.59;99002.41;4101845;29;19922;-59
2024/03/10 09:31:40;;;;;;;;;;;;;;;21.35;35.67;98995.25;4101721;28;20419;-58
2024/03/10 09:33:44;;;;;;;;;;;;;;;21.38;35.53;98992.22;4101604;29;19922;-58
2024/03/10 09:35:48;;;;;;;;;;;;;;;21.40;35.48;98992.06;4101756;28;19923;-59
2024/03/10 09:37:50;;;;;;;;;;;;;;;21.38;35.45;98986.88;4101387;28;19926;-58
2024/03/10 09:39:52;;;;;;;;;;;;;;;21.39;35.62;98985.88;4101655;28;19945;-58
2024/03/10 09:41:54;;;;;;;;;;;;;;;21.37;35.58;98979.88;4101393;29;19969;-58
2024/03/10 09:43:56;;;;;;;;;;;;;;;21.41;35.73;98993.75;4101137;28;19988;-59
2024/03/10 09:45:58;;;;;;;;;;;;;;;21.39;35.81;98988.53;4099587;28;20080;-58
2024/03/10 09:48:01;;;;;;;;;;;;;;;21.39;35.78;98987.72;4101073;29;20009;-58
2024/03/10 09:50:05;;;;;;;;;;;;;;;21.39;35.79;98991.22;4101208;29;20021;-58
2024/03/10 09:52:07;;;;;;;;;;;;;;;21.38;35.66;98989.53;4100740;28;19927;-59
2024/03/10 09:54:10;;;;;;;;;;;;;;;21.39;35.89;98982.38;4100166;29;20358;-59
2024/03/10 09:56:12;;;;;;;;;;;;;;;21.38;35.88;98978.84;4101427;28;19922;-59
2024/03/10 09:58:16;;;;;;;;;;;;;;;21.38;35.64;98981.53;4101114;29;20634;-58
2024/03/10 10:00:31;;;;;;;;;;;;;;;21.41;35.61;98977.72;4101249;29;19969;-59
2024/03/10 10:02:40;;;;;;;;;;;;;;;21.41;35.77;98976.84;4101231;28;19922;-61
2024/03/10 10:04:53;;;;;;;;;;;;;;;21.41;35.56;98979.53;4101075;28;19923;-59
2024/03/10 10:06:56;;;;;;;;;;;;;;;21.42;35.64;98990.03;4099768;28;19922;-58
2024/03/10 10:09:07;;;;;;;;;;;;;;;21.43;35.60;98986.38;4100925;29;19922;-59
2024/03/10 10:11:09;;;;;;;;;;;;;;;21.45;35.60;98991.56;4101224;29;20342;-59
2024/03/10 10:13:22;;;;;;;;;;;;;;;21.46;35.56;98991.41;4101080;28;19985;-58
2024/03/10 10:15:26;;;;;;;;;;;;;;;21.44;35.60;98987.22;4099587;29;20009;-58
2024/03/10 10:17:32;;;;;;;;;;;;;;;21.46;35.81;98998.56;4100894;28;19922;-58
2024/03/10 10:19:34;;;;;;;;;;;;;;;21.43;35.61;98997.06;4101125;28;19969;-59
2024/03/10 10:21:36;;;;;;;;;;;;;;;21.43;35.89;98999.75;4100561;28;19926;-59
2024/03/10 10:23:38;;;;;;;;;;;;;;;21.42;35.74;99000.75;4100899;28;20036;-59
2024/03/10 10:25:42;;;;;;;;;;;;;;;21.44;35.60;99003.28;4100848;28;20008;-59
2024/03/10 10:27:50;;;;;;;;;;;;;;;21.42;35.83;99014.13;4100804;28;19923;-58
2024/03/10 10:29:53;;;;;;;;;;;;;;;21.42;35.70;99011.44;4100982;28;19949;-58
2024/03/10 10:31:55;;;;;;;;;;;;;;;21.45;35.63;99008.44;4100650;28;19930;-58
2024/03/10 10:33:57;;;;;;;;;;;;;;;21.43;35.88;99007.78;4100699;28;20445;-58
2024/03/10 10:36:05;;;;;;;;;;;;;;;21.45;35.87;99003.09;4100402;29;20352;-58
2024/03/10 10:38:13;;;;;;;;;;;;;;;21.47;35.78;99000.25;4100524;28;20017;-58
2024/03/10 10:40:16;;;;;;;;;;;;;;;21.47;35.83;99003.78;4100566;28;19926;-59
2024/03/10 10:42:18;;;;;;;;;;;;;;;21.47;35.64;99011.81;4100347;28;20030;-59
2024/03/10 10:44:40;;;;;;;;;;;;;;;21.47;35.74;99006.44;4100442;28;19930;-59
2024/03/10 10:46:43;;;;;;;;;;;;;;;21.45;35.83;99011.13;4100304;28;19998;-60
2024/03/10 10:48:47;;;;;;;;;;;;;;;21.46;35.69;99010.13;4100465;28;19933;-58
2024/03/10 10:50:48;;;;;;;;;;;;;;;21.46;35.65;99017.28;4099941;28;19922;-58
2024/03/10 10:52:50;;;;;;;;;;;;;;;21.45;35.60;99021.81;4100370;28;20302;-59
2024/03/10 10:54:52;;;;;;;;;;;;;;;21.43;35.55;99020.31;4100339;28;19922;-58
2024/03/10 10:56:54;;;;;;;;;;;;;;;21.44;35.75;99016.66;4100393;28;20010;-58
2024/03/10 10:58:56;;;;;;;;;;;;;;;21.47;35.68;99029.66;4100321;28;19933;-59
2024/03/10 11:01:04;;;;;;;;;;;;;;;21.49;35.66;99031.16;4100375;28;20389;-58
2024/03/10 11:03:15;;;;;;;;;;;;;;;21.49;35.66;99033.84;4100121;28;19933;-59